Time;durP1;ratioP1;P1;durP2;ratioP2;P2;SDS_P1;SDS_P2;PMS_P1;PMS_P2;Temp;Humidity;BMP_temperature;BMP_pressure;BME280_temperature;BME280_humidity;BME280_pressure;Samples;Min_cycle;Max_cycle;Signal;HPM_P1;HPM_P2
2022/05/13 00:02:16;;;;;;;1.20;0.80;;;18.70;63.70;;;;;;5035110;28;20466;-76
2022/05/13 00:04:42;;;;;;;1.33;0.95;;;18.70;63.90;;;;;;5054465;28;20397;-74
2022/05/13 00:07:08;;;;;;;1.30;0.65;;;18.60;64.50;;;;;;5054135;28;20026;-74
2022/05/13 00:12:20;;;;;;;1.90;0.65;;;18.50;63.90;;;;;;5072825;28;20043;-76
2022/05/13 00:14:46;;;;;;;0.77;0.52;;;18.40;64.10;;;;;;5056184;28;20029;-76
2022/05/13 00:17:14;;;;;;;2.38;0.57;;;18.40;64.60;;;;;;5052881;28;20033;-75
2022/05/13 00:19:40;;;;;;;0.95;0.60;;;18.30;65.00;;;;;;5034194;28;20059;-75
2022/05/13 00:22:07;;;;;;;2.63;1.20;;;18.30;64.90;;;;;;5067498;28;20036;-75
2022/05/13 00:24:33;;;;;;;1.35;0.80;;;18.30;65.10;;;;;;5036814;28;20457;-74
2022/05/13 00:26:59;;;;;;;2.60;0.50;;;18.30;65.00;;;;;;5062609;28;20032;-76
2022/05/13 00:29:25;;;;;;;1.80;1.15;;;18.30;65.80;;;;;;5061508;28;20028;-75
2022/05/13 00:31:51;;;;;;;2.08;0.90;;;18.30;65.40;;;;;;5063495;28;20028;-74
2022/05/13 00:34:18;;;;;;;1.15;0.50;;;18.20;65.40;;;;;;5065811;28;20028;-75
2022/05/13 00:36:45;;;;;;;5.00;1.13;;;18.20;65.70;;;;;;5052198;28;20033;-74
2022/05/13 00:39:11;;;;;;;2.03;1.10;;;18.20;65.80;;;;;;5070300;28;20075;-75
2022/05/13 00:41:37;;;;;;;0.52;0.40;;;18.20;65.90;;;;;;5071202;28;20028;-74
2022/05/13 00:44:04;;;;;;;1.08;0.70;;;18.20;65.90;;;;;;5062117;28;20033;-74
2022/05/13 00:46:30;;;;;;;1.90;1.10;;;18.10;66.10;;;;;;5065162;28;20036;-76
2022/05/13 00:49:01;;;;;;;1.92;0.82;;;18.10;66.70;;;;;;5054133;28;20044;-76
2022/05/13 00:51:35;;;;;;;1.88;0.77;;;18.10;66.20;;;;;;5052545;28;20033;-75
2022/05/13 00:54:02;;;;;;;1.23;0.70;;;18.10;66.40;;;;;;5064944;28;20029;-74
2022/05/13 00:56:30;;;;;;;1.38;0.85;;;18.00;66.60;;;;;;5071447;28;20477;-75
2022/05/13 00:59:01;;;;;;;1.20;0.75;;;18.00;66.80;;;;;;5071308;28;20469;-75
2022/05/13 01:01:29;;;;;;;12.75;1.10;;;18.00;67.10;;;;;;5071480;28;20031;-75
2022/05/13 01:04:02;;;;;;;1.60;1.02;;;17.90;67.30;;;;;;5060137;28;20378;-75
2022/05/13 01:06:29;;;;;;;1.83;1.13;;;17.90;67.50;;;;;;5070578;28;20032;-74
2022/05/13 01:08:56;;;;;;;0.80;0.60;;;17.90;67.80;;;;;;5075541;28;20036;-76
2022/05/13 01:11:26;;;;;;;2.17;0.90;;;17.80;68.10;;;;;;5076076;28;20388;-77
2022/05/13 01:14:00;;;;;;;1.48;0.75;;;17.80;68.60;;;;;;5075289;28;20032;-74
2022/05/13 01:16:27;;;;;;;0.95;0.70;;;17.70;68.70;;;;;;5075771;28;20027;-76
2022/05/13 01:18:54;;;;;;;2.53;1.20;;;17.70;69.60;;;;;;5060135;28;20029;-77
2022/05/13 01:21:26;;;;;;;1.45;0.90;;;17.70;69.50;;;;;;5056253;28;20043;-75
2022/05/13 01:23:53;;;;;;;1.23;0.75;;;17.70;69.60;;;;;;5067159;28;20036;-76
2022/05/13 01:26:25;;;;;;;2.35;0.98;;;17.70;69.60;;;;;;5075307;28;20035;-76
2022/05/13 01:28:55;;;;;;;1.65;1.08;;;17.60;69.90;;;;;;5062943;28;20029;-75
2022/05/13 01:31:25;;;;;;;1.42;0.80;;;17.60;70.10;;;;;;5074963;28;20131;-74
2022/05/13 01:33:52;;;;;;;;;;;17.60;70.30;;;;;;5051744;28;20048;-74
2022/05/13 01:36:18;;;;;;;0.70;0.70;;;17.50;70.60;;;;;;5065883;28;20245;-75
2022/05/13 01:38:44;;;;;;;1.65;1.00;;;17.50;70.50;;;;;;5056142;28;20056;-77
2022/05/13 01:41:13;;;;;;;1.30;0.80;;;17.50;70.60;;;;;;5057719;28;20033;-75
2022/05/13 01:43:41;;;;;;;1.80;0.95;;;17.50;70.80;;;;;;5053514;28;20033;-74
2022/05/13 01:46:08;;;;;;;1.90;1.33;;;17.40;71.00;;;;;;5052528;28;20128;-74
2022/05/13 01:48:35;;;;;;;1.23;0.70;;;17.30;71.50;;;;;;5055739;28;20036;-76
2022/05/13 01:51:01;;;;;;;1.23;1.02;;;17.20;71.70;;;;;;5074492;28;20465;-73
2022/05/13 01:53:28;;;;;;;1.23;0.65;;;17.20;72.00;;;;;;5060133;28;20036;-74
2022/05/13 01:55:54;;;;;;;1.67;0.93;;;17.10;72.50;;;;;;5066452;28;20032;-75
2022/05/13 01:58:22;;;;;;;1.83;1.33;;;17.10;73.50;;;;;;5061608;28;20037;-74
2022/05/13 02:00:50;;;;;;;0.80;0.65;;;17.00;73.60;;;;;;5064147;28;20033;-75
2022/05/13 02:06:05;;;;;;;2.70;1.00;;;16.80;74.60;;;;;;5055007;28;20370;-75
2022/05/13 02:08:32;;;;;;;2.55;1.02;;;16.80;75.00;;;;;;5061993;28;20028;-75
2022/05/13 02:10:59;;;;;;;1.05;0.85;;;16.70;75.60;;;;;;5074244;28;20033;-74
2022/05/13 02:13:26;;;;;;;1.75;1.00;;;16.60;76.70;;;;;;5074553;28;20040;-75
2022/05/13 02:15:52;;;;;;;0.85;0.70;;;16.50;77.90;;;;;;5073464;28;20028;-76
2022/05/13 02:18:19;;;;;;;6.50;0.82;;;16.40;79.90;;;;;;5073685;28;20036;-74
2022/05/13 02:20:45;;;;;;;1.35;0.70;;;16.20;81.90;;;;;;5055162;28;20032;-75
2022/05/13 02:23:12;;;;;;;1.90;1.10;;;16.10;84.20;;;;;;5055131;28;20021;-74
2022/05/13 02:25:39;;;;;;;1.60;0.95;;;16.00;86.50;;;;;;5056717;28;20107;-75
2022/05/13 02:28:06;;;;;;;3.17;1.20;;;15.90;88.80;;;;;;5074217;28;20387;-75
2022/05/13 02:30:32;;;;;;;13.23;1.58;;;15.80;90.50;;;;;;5052343;28;20021;-77
2022/05/13 02:32:59;;;;;;;1.60;0.90;;;15.70;91.00;;;;;;5064560;28;20039;-75
2022/05/13 02:35:25;;;;;;;1.33;0.95;;;15.60;91.10;;;;;;5066446;28;20033;-75
2022/05/13 02:37:52;;;;;;;1.73;1.33;;;15.50;91.90;;;;;;5071729;28;20041;-74
2022/05/13 02:40:18;;;;;;;2.63;0.85;;;15.40;92.60;;;;;;5039699;28;20036;-74
2022/05/13 02:42:45;;;;;;;0.88;0.80;;;15.30;93.40;;;;;;5060559;28;20028;-77
2022/05/13 02:45:11;;;;;;;1.95;1.23;;;15.30;93.70;;;;;;5066070;28;20041;-74
2022/05/13 02:47:40;;;;;;;1.80;0.95;;;15.30;93.70;;;;;;5060626;28;20048;-76
2022/05/13 02:50:21;;;;;;;1.48;1.00;;;15.30;94.00;;;;;;5073709;28;20051;-75
2022/05/13 02:52:48;;;;;;;;;;;15.30;93.10;;;;;;5073639;28;20024;-74
2022/05/13 02:55:14;;;;;;;1.13;0.82;;;15.30;92.60;;;;;;5065665;28;19971;-74
2022/05/13 02:57:41;;;;;;;0.98;0.88;;;15.40;92.30;;;;;;5071252;28;20028;-75
2022/05/13 03:00:08;;;;;;;2.20;1.35;;;15.40;92.40;;;;;;5073613;28;20031;-75
2022/05/13 03:02:35;;;;;;;2.25;1.00;;;15.40;93.10;;;;;;5056851;28;20037;-75
2022/05/13 03:05:02;;;;;;;3.30;1.52;;;15.30;93.80;;;;;;5073629;28;20033;-75
2022/05/13 03:07:28;;;;;;;2.78;1.33;;;15.10;94.00;;;;;;5073035;28;20037;-75
2022/05/13 03:09:55;;;;;;;2.55;1.63;;;14.90;94.70;;;;;;5067228;28;20500;-75
2022/05/13 03:12:21;;;;;;;3.75;0.93;;;14.90;95.40;;;;;;5054756;28;20029;-74
2022/05/13 03:14:47;;;;;;;2.88;1.83;;;14.90;96.00;;;;;;5053668;28;20079;-75
2022/05/13 03:17:13;;;;;;;11.30;1.70;;;14.90;95.70;;;;;;5053817;28;20029;-77
2022/05/13 03:19:40;;;;;;;0.93;0.73;;;15.00;94.30;;;;;;5063084;28;20033;-74
2022/05/13 03:22:07;;;;;;;4.18;1.55;;;15.10;93.90;;;;;;5053936;28;20032;-75
2022/05/13 03:24:34;;;;;;;4.28;1.25;;;15.10;93.60;;;;;;5072976;28;20037;-75
2022/05/13 03:27:00;;;;;;;3.03;1.23;;;15.20;93.20;;;;;;5072945;28;20035;-75
2022/05/13 03:29:27;;;;;;;1.48;0.93;;;15.20;92.80;;;;;;5072383;28;20032;-75
2022/05/13 03:31:54;;;;;;;2.90;1.65;;;15.20;93.20;;;;;;5072395;28;20047;-75
2022/05/13 03:34:21;;;;;;;1.58;1.17;;;15.10;94.10;;;;;;5072440;28;20096;-75
2022/05/13 03:36:49;;;;;;;5.90;2.15;;;14.90;94.00;;;;;;5072324;28;20044;-74
2022/05/13 03:39:16;;;;;;;1.38;1.23;;;14.80;94.10;;;;;;5065941;28;20044;-75
2022/05/13 03:41:42;;;;;;;3.38;1.38;;;14.60;95.80;;;;;;5059893;28;20025;-75
2022/05/13 03:44:09;;;;;;;1.63;1.35;;;14.50;96.40;;;;;;5072106;28;20032;-75
2022/05/13 03:46:35;;;;;;;2.80;1.42;;;14.30;97.30;;;;;;5067576;28;20048;-75
2022/05/13 03:49:02;;;;;;;1.70;1.10;;;14.20;98.50;;;;;;5053034;28;20371;-74
2022/05/13 03:51:29;;;;;;;1.27;1.17;;;14.10;99.30;;;;;;5052848;28;20021;-75
2022/05/13 03:53:55;;;;;;;1.35;0.90;;;14.10;99.50;;;;;;5062967;28;20028;-75
2022/05/13 03:56:21;;;;;;;7.90;1.42;;;14.10;98.80;;;;;;5072709;28;20357;-75
2022/05/13 03:58:47;;;;;;;1.20;1.05;;;14.00;99.20;;;;;;5071268;28;20028;-74
2022/05/13 04:01:13;;;;;;;2.80;1.30;;;14.00;99.60;;;;;;5072077;28;20110;-74
2022/05/13 04:03:40;;;;;;;3.25;1.65;;;14.00;99.80;;;;;;5071833;28;20031;-74
2022/05/13 04:08:57;;;;;;;7.88;2.00;;;13.90;99.90;;;;;;5070977;28;20028;-75
2022/05/13 04:11:28;;;;;;;1.38;1.20;;;13.90;99.90;;;;;;5052893;28;20032;-74
2022/05/13 04:16:39;;;;;;;2.00;1.20;;;13.80;99.90;;;;;;5072615;28;20044;-75
2022/05/13 04:19:05;;;;;;;1.83;1.55;;;13.80;99.90;;;;;;5071671;28;20033;-74
2022/05/13 04:21:34;;;;;;;1.80;1.52;;;13.90;99.90;;;;;;5055793;28;20450;-74
2022/05/13 04:24:04;;;;;;;3.22;2.03;;;14.00;99.90;;;;;;5050067;28;20041;-74
2022/05/13 04:26:32;;;;;;;;;;;14.10;99.90;;;;;;5068669;28;20032;-75
2022/05/13 04:28:59;;;;;;;3.30;1.67;;;14.20;99.60;;;;;;5036815;28;20337;-75
2022/05/13 04:31:31;;;;;;;3.67;1.63;;;14.20;99.60;;;;;;5058785;28;20036;-74
2022/05/13 04:33:58;;;;;;;2.00;1.48;;;14.20;99.90;;;;;;5025044;28;20393;-75
2022/05/13 04:36:27;;;;;;;2.30;1.48;;;14.30;99.90;;;;;;5049619;28;20075;-76
2022/05/13 04:38:54;;;;;;;3.85;2.20;;;14.30;99.90;;;;;;5033013;28;20049;-74
2022/05/13 04:44:09;;;;;;;1.67;1.45;;;15.20;97.60;;;;;;5052902;28;20049;-74
2022/05/13 04:46:36;;;;;;;2.35;1.73;;;15.30;96.70;;;;;;5033701;28;20045;-76
2022/05/13 04:49:03;;;;;;;2.95;1.58;;;15.60;96.10;;;;;;5052888;28;20466;-75
2022/05/13 04:51:30;;;;;;;2.67;1.33;;;15.90;95.00;;;;;;5048919;28;20040;-74
2022/05/13 04:53:58;;;;;;;3.90;1.48;;;16.10;94.50;;;;;;5017565;28;20629;-75
2022/05/13 04:56:26;;;;;;;2.72;1.38;;;16.20;94.10;;;;;;5031149;28;20045;-73
2022/05/13 04:58:53;;;;;;;2.70;1.25;;;16.30;93.80;;;;;;5061788;28;20036;-74
2022/05/13 05:01:21;;;;;;;3.47;1.95;;;17.00;92.80;;;;;;5032746;28;20048;-74
2022/05/13 05:03:47;;;;;;;1.77;1.48;;;17.40;90.80;;;;;;5033714;28;20070;-74
2022/05/13 05:06:16;;;;;;;1.98;1.65;;;17.40;90.80;;;;;;5052298;28;20122;-74
2022/05/13 05:08:44;;;;;;;1.38;1.00;;;17.50;90.10;;;;;;5053720;28;20049;-74
2022/05/13 05:11:12;;;;;;;5.65;1.55;;;17.20;90.40;;;;;;5052426;28;20048;-74
2022/05/13 05:13:44;;;;;;;1.73;1.20;;;17.10;90.00;;;;;;5049317;28;20048;-75
2022/05/13 05:16:12;;;;;;;1.52;1.23;;;16.90;90.30;;;;;;5017152;28;20406;-75
2022/05/13 05:18:39;;;;;;;2.72;1.30;;;17.00;90.70;;;;;;5052292;28;20033;-74
2022/05/13 05:21:07;;;;;;;1.58;0.82;;;16.80;90.70;;;;;;5045267;28;20576;-74
2022/05/13 05:23:35;;;;;;;1.38;1.08;;;17.00;89.20;;;;;;5033536;28;20040;-74
2022/05/13 05:26:03;;;;;;;1.27;1.05;;;17.10;87.70;;;;;;5050297;28;20378;-74
2022/05/13 05:28:30;;;;;;;2.30;1.33;;;16.70;89.60;;;;;;5036620;28;20052;-74
2022/05/13 05:30:58;;;;;;;1.50;1.00;;;16.70;89.30;;;;;;5057354;28;20040;-75
2022/05/13 05:33:25;;;;;;;1.75;1.17;;;16.70;89.50;;;;;;5048719;28;20055;-75
2022/05/13 05:35:51;;;;;;;3.13;1.25;;;16.60;90.40;;;;;;5052011;28;20496;-75
2022/05/13 05:38:17;;;;;;;2.60;1.67;;;17.70;86.90;;;;;;5054126;28;20413;-75
2022/05/13 05:40:44;;;;;;;3.63;0.85;;;17.80;85.40;;;;;;5033468;28;20390;-75
2022/05/13 05:43:14;;;;;;;2.92;1.45;;;18.30;81.60;;;;;;5069569;28;20032;-75
2022/05/13 05:45:42;;;;;;;1.98;1.23;;;17.80;80.80;;;;;;5053212;28;20037;-75
2022/05/13 05:48:10;;;;;;;1.92;1.20;;;17.40;82.30;;;;;;5070716;28;20031;-75
2022/05/13 05:50:37;;;;;;;1.83;0.90;;;17.50;82.30;;;;;;5036165;28;20048;-77
2022/05/13 05:53:03;;;;;;;3.30;1.10;;;17.60;81.30;;;;;;5034107;28;20033;-74
2022/05/13 05:58:16;;;;;;;2.53;1.33;;;17.20;83.30;;;;;;5038525;28;20044;-74
2022/05/13 06:00:47;;;;;;;1.92;1.10;;;16.90;83.90;;;;;;5037570;28;20060;-74
2022/05/13 06:03:14;;;;;;;1.30;0.88;;;16.70;84.90;;;;;;5037934;28;20048;-74
2022/05/13 06:05:41;;;;;;;1.90;1.13;;;16.80;86.30;;;;;;5048935;28;20497;-74
2022/05/13 06:08:08;;;;;;;3.55;0.90;;;16.90;84.20;;;;;;5065169;28;20037;-73
2022/05/13 06:10:38;;;;;;;5.35;1.27;;;17.20;84.40;;;;;;5056488;28;20036;-74
2022/05/13 06:13:05;;;;;;;2.67;1.02;;;17.50;80.50;;;;;;5054253;28;20055;-74
2022/05/13 06:15:32;;;;;;;1.17;0.90;;;17.70;80.80;;;;;;5048022;28;20406;-75
2022/05/13 06:17:58;;;;;;;2.15;1.20;;;17.80;78.60;;;;;;5054318;28;20492;-74
2022/05/13 06:20:27;;;;;;;2.30;0.90;;;18.20;78.80;;;;;;5036647;28;20041;-74
2022/05/13 06:22:55;;;;;;;2.55;1.08;;;18.80;74.30;;;;;;5036474;28;20068;-75
2022/05/13 06:25:22;;;;;;;2.00;0.93;;;19.00;72.50;;;;;;5069968;28;20029;-74
2022/05/13 06:27:50;;;;;;;6.20;1.25;;;19.50;70.80;;;;;;5038906;28;20068;-74
2022/05/13 06:30:26;;;;;;;2.60;1.23;;;19.50;69.80;;;;;;5052898;28;20024;-75
2022/05/13 06:32:54;;;;;;;1.13;0.80;;;19.60;69.70;;;;;;5069785;28;20381;-74
2022/05/13 06:35:23;;;;;;;5.80;0.93;;;20.20;68.50;;;;;;5042664;28;20037;-74
2022/05/13 06:37:51;;;;;;;1.58;1.00;;;19.90;67.70;;;;;;5069123;28;20048;-75
2022/05/13 06:40:18;;;;;;;4.93;1.00;;;19.60;68.20;;;;;;5035232;28;20405;-75
2022/05/13 06:42:45;;;;;;;2.03;1.13;;;18.80;70.60;;;;;;5035772;28;20037;-75
2022/05/13 06:45:12;;;;;;;1.65;0.93;;;18.10;72.40;;;;;;5034860;28;20045;-74
2022/05/13 06:47:38;;;;;;;1.65;0.93;;;17.70;74.10;;;;;;5036168;28;20029;-75
2022/05/13 06:50:07;;;;;;;3.28;1.52;;;17.70;74.70;;;;;;5034725;28;20052;-76
2022/05/13 06:52:34;;;;;;;2.78;1.10;;;17.60;74.90;;;;;;5052791;28;20482;-74
2022/05/13 06:55:01;;;;;;;1.27;0.73;;;17.20;76.20;;;;;;5036733;28;20036;-74
2022/05/13 06:57:27;;;;;;;1.30;0.80;;;17.20;77.30;;;;;;5054094;28;20040;-74
2022/05/13 06:59:53;;;;;;;1.73;1.05;;;17.80;78.10;;;;;;5051563;28;20400;-74
2022/05/13 07:02:22;;;;;;;0.70;0.60;;;17.80;76.50;;;;;;5073247;28;20033;-74
2022/05/13 07:04:50;;;;;;;0.82;0.77;;;17.70;76.50;;;;;;5050912;28;20044;-74
2022/05/13 07:07:16;;;;;;;2.13;0.77;;;17.50;77.60;;;;;;5022649;28;20041;-74
2022/05/13 07:09:42;;;;;;;4.45;0.95;;;17.50;78.70;;;;;;5038349;28;20041;-76
2022/05/13 07:12:09;;;;;;;0.90;0.80;;;17.70;77.90;;;;;;5052252;28;20395;-74
2022/05/13 07:14:36;;;;;;;2.15;0.82;;;18.30;76.10;;;;;;5034488;28;20056;-74
2022/05/13 07:17:04;;;;;;;1.60;0.85;;;19.00;74.40;;;;;;5036189;28;20485;-74
2022/05/13 07:19:31;;;;;;;2.60;1.05;;;20.20;71.40;;;;;;5035785;28;20048;-74
2022/05/13 07:21:57;;;;;;;5.47;0.98;;;21.20;65.20;;;;;;5053143;28;20101;-75
2022/05/13 07:24:24;;;;;;;1.50;0.70;;;20.10;67.10;;;;;;5051061;28;20044;-74
2022/05/13 07:26:50;;;;;;;1.73;0.80;;;20.20;65.70;;;;;;5053607;28;20044;-75
2022/05/13 07:29:16;;;;;;;2.50;0.90;;;19.50;66.80;;;;;;5035462;28;20040;-74
2022/05/13 07:31:43;;;;;;;3.75;1.27;;;18.80;69.50;;;;;;5051138;28;20037;-74
2022/05/13 07:34:09;;;;;;;1.55;0.82;;;18.60;70.30;;;;;;5051051;28;20049;-74
2022/05/13 07:36:35;;;;;;;15.88;2.53;;;18.30;71.30;;;;;;5035959;28;20029;-74
2022/05/13 07:41:47;;;;;;;16.60;3.83;;;19.30;67.30;;;;;;5050998;28;20054;-75
2022/05/13 07:44:14;;;;;;;14.75;2.72;;;20.00;65.80;;;;;;5065365;28;20035;-76
2022/05/13 07:46:40;;;;;;;20.23;2.55;;;20.10;63.40;;;;;;5072058;28;20465;-76
2022/05/13 07:49:08;;;;;;;11.20;3.50;;;19.10;63.90;;;;;;5055564;28;20417;-74
2022/05/13 07:51:34;;;;;;;4.38;1.80;;;18.40;66.50;;;;;;5051289;28;20045;-75
2022/05/13 07:54:00;;;;;;;3.35;1.08;;;18.30;66.90;;;;;;5052952;28;20037;-75
2022/05/13 07:56:27;;;;;;;1.75;1.10;;;18.80;66.30;;;;;;5053420;28;20034;-75
2022/05/13 07:58:53;;;;;;;2.00;0.80;;;19.10;63.80;;;;;;5054105;28;20092;-76
2022/05/13 08:01:20;;;;;;;2.13;0.88;;;19.20;63.90;;;;;;5049261;28;20044;-74
2022/05/13 08:03:49;;;;;;;3.47;1.13;;;19.70;63.00;;;;;;5052693;28;20041;-73
2022/05/13 08:06:15;;;;;;;1.38;0.82;;;20.00;61.50;;;;;;5058332;28;20032;-75
2022/05/13 08:08:45;;;;;;;1.85;1.10;;;19.60;61.50;;;;;;5048198;28;20045;-75
2022/05/13 08:11:13;;;;;;;;;;;19.60;62.00;;;;;;5053115;28;20048;-74
2022/05/13 08:13:41;;;;;;;0.98;0.60;;;20.10;60.80;;;;;;5034099;28;19915;-75
2022/05/13 08:16:11;;;;;;;2.78;1.10;;;20.40;60.60;;;;;;5034102;28;20047;-75
2022/05/13 08:18:38;;;;;;;2.25;1.02;;;20.80;58.90;;;;;;5064703;28;20047;-75
2022/05/13 08:21:05;;;;;;;1.77;0.82;;;21.40;58.10;;;;;;5071611;28;20172;-74
2022/05/13 08:23:32;;;;;;;2.63;1.15;;;20.60;58.30;;;;;;5043480;28;20041;-75
2022/05/13 08:25:58;;;;;;;1.27;0.80;;;21.10;58.10;;;;;;5041438;28;20409;-76
2022/05/13 08:28:26;;;;;;;2.55;0.85;;;21.60;58.40;;;;;;5069085;28;20029;-76
2022/05/13 08:30:52;;;;;;;3.03;1.10;;;21.90;56.80;;;;;;5045674;28;20051;-73
2022/05/13 08:33:19;;;;;;;2.90;1.13;;;21.40;58.20;;;;;;5066372;28;20042;-74
2022/05/13 08:35:49;;;;;;;4.00;0.80;;;21.50;56.80;;;;;;5046007;28;20045;-74
2022/05/13 08:38:22;;;;;;;2.95;1.25;;;21.00;58.10;;;;;;5062000;28;20479;-74
2022/05/13 08:40:49;;;;;;;2.47;0.88;;;21.30;57.10;;;;;;5065285;28;20035;-74
2022/05/13 08:43:38;;;;;;;1.40;0.75;;;20.70;58.30;;;;;;5065489;28;20047;-74
2022/05/13 08:46:20;;;;;;;2.10;1.00;;;20.60;57.80;;;;;;5044536;28;20048;-73
2022/05/13 08:48:49;;;;;;;1.38;0.82;;;20.90;58.50;;;;;;5039111;28;20045;-74
2022/05/13 08:51:18;;;;;;;2.53;1.13;;;21.10;57.70;;;;;;5063206;28;20028;-73
2022/05/13 08:54:14;;;;;;;4.43;0.95;;;21.70;56.50;;;;;;5044218;28;20048;-74
2022/05/13 08:56:45;;;;;;;2.83;1.33;;;21.30;57.20;;;;;;5064081;28;20485;-75
2022/05/13 08:59:19;;;;;;;2.08;1.05;;;21.20;57.00;;;;;;5062512;28;20028;-74
2022/05/13 09:01:53;;;;;;;2.40;1.40;;;20.60;57.50;;;;;;5043816;28;20465;-74
2022/05/13 09:04:59;;;;;;;1.40;0.90;;;20.80;58.40;;;;;;5028495;28;20041;-73
2022/05/13 09:07:27;;;;;;;3.65;1.13;;;21.00;56.70;;;;;;5017613;28;20064;-73
2022/05/13 09:10:06;;;;;;;2.38;1.05;;;21.40;57.10;;;;;;5034036;28;20385;-73
2022/05/13 09:13:01;;;;;;;2.50;0.75;;;21.50;56.10;;;;;;5033898;28;20474;-73
2022/05/13 09:15:44;;;;;;;2.25;0.93;;;21.50;56.50;;;;;;5052624;28;20033;-74
2022/05/13 09:18:34;;;;;;;1.55;0.75;;;22.40;54.40;;;;;;5042624;28;20044;-73
2022/05/13 09:21:09;;;;;;;;;;;21.50;54.90;;;;;;5059192;28;20033;-73
2022/05/13 09:23:36;;;;;;;1.85;0.88;;;21.40;56.10;;;;;;5050003;28;19912;-75
2022/05/13 09:26:17;;;;;;;1.33;0.70;;;21.90;54.30;;;;;;5043967;28;20032;-74
2022/05/13 09:29:04;;;;;;;0.85;0.85;;;22.10;54.60;;;;;;5067893;28;20381;-74
2022/05/13 09:31:33;;;;;;;1.83;0.90;;;22.30;54.30;;;;;;5064855;28;20029;-74
2022/05/13 09:33:59;;;;;;;0.93;0.83;;;22.10;54.70;;;;;;5063035;28;20052;-74
2022/05/13 09:36:26;;;;;;;1.25;1.15;;;22.10;53.40;;;;;;5065874;28;20039;-74
2022/05/13 09:38:55;;;;;;;2.05;1.23;;;21.90;53.80;;;;;;5073699;28;20045;-74
2022/05/13 09:41:39;;;;;;;1.08;0.73;;;21.60;53.90;;;;;;5074467;28;20028;-74
2022/05/13 09:44:12;;;;;;;2.17;0.80;;;22.00;53.60;;;;;;5074460;28;20489;-74
2022/05/13 09:46:44;;;;;;;2.20;1.00;;;21.60;54.20;;;;;;5074716;28;20032;-73
2022/05/13 09:49:28;;;;;;;1.55;0.60;;;22.10;53.80;;;;;;5039430;28;20060;-75
2022/05/13 09:52:35;;;;;;;3.13;1.17;;;21.60;53.30;;;;;;5045386;28;20024;-75
2022/05/13 09:55:36;;;;;;;0.70;0.60;;;20.80;54.30;;;;;;5043009;28;20041;-77
2022/05/13 09:58:09;;;;;;;1.45;0.75;;;20.90;54.30;;;;;;5051363;28;20055;-74
2022/05/13 10:00:41;;;;;;;1.50;0.60;;;20.80;55.50;;;;;;5056105;28;20394;-76
2022/05/13 10:03:18;;;;;;;1.67;0.80;;;21.30;54.20;;;;;;5055033;28;20037;-75
2022/05/13 10:06:11;;;;;;;0.90;0.60;;;21.80;53.70;;;;;;5073888;28;20041;-75
2022/05/13 10:14:37;;;;;;;1.85;0.68;;;21.90;52.70;;;;;;5069657;28;20036;-76
2022/05/13 10:17:27;;;;;;;5.47;1.10;;;21.40;52.60;;;;;;5073648;28;20033;-77
2022/05/13 10:20:02;;;;;;;2.97;0.80;;;21.20;54.10;;;;;;5054431;28;20029;-76
2022/05/13 10:23:09;;;;;;;0.55;0.55;;;21.40;52.10;;;;;;5074045;28;20370;-76
2022/05/13 10:25:58;;;;;;;4.32;0.60;;;21.60;52.50;;;;;;5022483;28;20041;-76
2022/05/13 10:28:45;;;;;;;0.85;0.55;;;22.00;49.90;;;;;;5070337;28;20047;-76
2022/05/13 10:31:19;;;;;;;1.95;0.70;;;21.90;49.20;;;;;;5052485;28;20427;-75
2022/05/13 10:34:14;;;;;;;1.60;0.60;;;21.90;50.40;;;;;;5051753;28;20056;-75
2022/05/13 10:36:50;;;;;;;3.38;0.68;;;22.40;50.70;;;;;;5045551;28;20055;-75
2022/05/13 10:39:50;;;;;;;1.05;0.60;;;22.10;49.10;;;;;;5071622;28;20044;-75
2022/05/13 10:42:35;;;;;;;2.38;0.95;;;21.70;50.70;;;;;;5067490;28;20036;-75
2022/05/13 10:45:20;;;;;;;1.13;0.63;;;22.00;50.70;;;;;;5065141;28;20373;-77
2022/05/13 10:47:52;;;;;;;1.02;0.70;;;22.00;49.70;;;;;;5073438;28;20048;-76
2022/05/13 10:50:25;;;;;;;3.13;0.77;;;21.80;49.40;;;;;;5061157;28;20029;-76
2022/05/13 10:53:13;;;;;;;1.67;0.60;;;21.90;48.90;;;;;;5063139;28;20461;-75
2022/05/13 10:55:58;;;;;;;1.58;0.82;;;21.90;49.60;;;;;;5054102;28;20047;-74
2022/05/13 10:58:52;;;;;;;1.60;0.73;;;21.70;49.30;;;;;;5068851;28;20493;-75
2022/05/13 11:01:39;;;;;;;2.15;0.85;;;21.50;48.70;;;;;;5066299;28;20385;-74
2022/05/13 11:04:25;;;;;;;0.80;0.50;;;22.10;49.20;;;;;;5068810;28;20086;-75
2022/05/13 11:07:14;;;;;;;0.90;0.57;;;22.30;48.70;;;;;;5058818;28;20037;-75
2022/05/13 11:09:57;;;;;;;1.03;0.60;;;22.40;49.90;;;;;;5067693;28;20477;-75
2022/05/13 11:13:12;;;;;;;1.35;0.63;;;22.10;49.10;;;;;;5064261;28;20025;-75
2022/05/13 11:15:50;;;;;;;0.93;0.50;;;21.80;49.50;;;;;;5035409;28;20040;-76
2022/05/13 11:19:01;;;;;;;1.83;0.80;;;22.40;49.10;;;;;;5058889;28;20029;-76
2022/05/13 11:21:56;;;;;;;2.03;0.73;;;22.30;48.40;;;;;;5040176;28;20049;-76
2022/05/13 11:27:47;;;;;;;2.72;0.55;;;22.30;48.70;;;;;;5073349;28;20043;-75
2022/05/13 11:30:36;;;;;;;1.08;0.50;;;22.80;48.40;;;;;;5054604;28;20047;-76
2022/05/13 11:33:19;;;;;;;0.80;0.50;;;23.10;47.90;;;;;;5046499;28;20284;-76
2022/05/13 11:36:21;;;;;;;3.17;0.50;;;22.90;47.30;;;;;;5065048;28;20032;-77
2022/05/13 11:39:18;;;;;;;0.90;0.50;;;22.60;47.50;;;;;;5033060;28;20052;-76
2022/05/13 11:42:19;;;;;;;1.85;0.73;;;22.50;47.80;;;;;;5025951;28;20037;-77
2022/05/13 11:44:51;;;;;;;1.33;0.52;;;22.40;48.10;;;;;;5029841;28;20064;-76
2022/05/13 11:47:45;;;;;;;1.13;0.55;;;22.30;47.10;;;;;;5058689;28;20492;-74
2022/05/13 11:50:11;;;;;;;0.73;0.50;;;22.60;47.60;;;;;;5053561;28;20466;-78
2022/05/13 11:52:37;;;;;;;1.77;0.60;;;22.50;48.00;;;;;;5053753;28;20458;-79
2022/05/13 11:55:29;;;;;;;1.58;0.60;;;22.70;47.80;;;;;;5030581;28;20297;-77
2022/05/13 11:57:56;;;;;;;1.48;0.65;;;22.70;47.40;;;;;;4994391;28;20042;-80
2022/05/13 12:00:31;;;;;;;2.03;0.70;;;22.80;47.00;;;;;;4998923;28;20046;-78
2022/05/13 12:03:15;;;;;;;0.93;0.52;;;22.80;46.70;;;;;;5024093;28;20041;-77
2022/05/13 12:06:10;;;;;;;0.95;0.60;;;23.10;46.50;;;;;;5021849;28;20049;-78
2022/05/13 12:08:36;;;;;;;1.88;0.93;;;23.20;45.00;;;;;;4935868;29;20122;-75
2022/05/13 12:11:02;;;;;;;0.98;0.57;;;23.30;45.40;;;;;;4952187;29;20456;-77
2022/05/13 12:13:37;;;;;;;2.60;0.68;;;23.20;44.80;;;;;;4952046;29;20039;-77
2022/05/13 12:16:19;;;;;;;0.52;0.30;;;23.00;45.10;;;;;;4951290;29;20441;-78
2022/05/13 12:18:49;;;;;;;1.52;0.47;;;23.00;43.90;;;;;;4951257;29;20054;-78
2022/05/13 12:21:29;;;;;;;0.40;0.40;;;22.90;44.60;;;;;;4951668;29;20039;-76
2022/05/13 12:24:21;;;;;;;1.10;0.60;;;23.00;44.10;;;;;;4951632;29;20087;-76
2022/05/13 12:26:53;;;;;;;0.57;0.40;;;23.00;43.80;;;;;;4976396;28;20057;-78
2022/05/13 12:29:50;;;;;;;0.52;0.50;;;23.30;43.10;;;;;;4966152;28;20174;-78
2022/05/13 12:32:35;;;;;;;3.17;0.80;;;22.90;45.00;;;;;;4971161;28;20042;-79
2022/05/13 12:37:55;;;;;;;4.35;0.63;;;22.80;44.10;;;;;;4988138;28;20054;-79
2022/05/13 12:40:21;;;;;;;1.67;0.45;;;22.90;44.40;;;;;;4975539;28;20035;-79
2022/05/13 12:42:48;;;;;;;2.10;0.80;;;23.10;44.70;;;;;;4983698;28;20039;-78
2022/05/13 12:45:58;;;;;;;0.95;0.40;;;23.20;44.60;;;;;;4996506;28;20050;-78
2022/05/13 12:48:25;;;;;;;2.03;0.70;;;23.60;44.70;;;;;;5046627;28;20037;-75
2022/05/13 12:51:11;;;;;;;0.50;0.50;;;23.50;43.40;;;;;;5039528;28;20036;-78
2022/05/13 12:53:43;;;;;;;1.45;0.55;;;23.60;42.50;;;;;;5032604;28;20037;-78
2022/05/13 12:56:34;;;;;;;2.65;0.55;;;23.50;42.70;;;;;;5042661;28;20029;-78
2022/05/13 12:59:22;;;;;;;0.82;0.60;;;23.30;43.50;;;;;;5051559;28;20041;-78
2022/05/13 13:01:52;;;;;;;4.60;0.70;;;23.70;42.70;;;;;;5048705;28;20037;-77
2022/05/13 13:04:23;;;;;;;1.10;0.50;;;23.60;43.50;;;;;;5057652;28;20033;-78
2022/05/13 13:06:49;;;;;;;0.80;0.55;;;23.50;43.30;;;;;;5049410;28;20030;-78
2022/05/13 13:09:35;;;;;;;0.30;0.30;;;23.80;42.70;;;;;;5038000;28;20042;-78
2022/05/13 13:12:23;;;;;;;2.17;0.68;;;23.40;42.60;;;;;;5035139;28;20029;-75
2022/05/13 13:14:59;;;;;;;1.80;0.60;;;23.30;41.80;;;;;;5034784;28;20033;-80
2022/05/13 13:17:35;;;;;;;1.88;0.50;;;23.50;41.70;;;;;;5041953;28;20374;-77
2022/05/13 13:20:05;;;;;;;2.25;0.50;;;23.10;42.90;;;;;;5050599;28;20438;-77
2022/05/13 13:22:38;;;;;;;0.77;0.40;;;23.40;42.00;;;;;;5034983;28;20037;-78
2022/05/13 13:25:23;;;;;;;1.30;0.50;;;23.70;42.30;;;;;;5036363;28;20064;-77
2022/05/13 13:27:53;;;;;;;1.75;0.75;;;23.80;41.80;;;;;;5054616;28;20037;-77
2022/05/13 13:30:22;;;;;;;1.95;0.25;;;23.70;41.90;;;;;;5055498;28;20033;-76
2022/05/13 13:32:50;;;;;;;0.75;0.50;;;23.60;42.10;;;;;;5052096;28;20442;-77
2022/05/13 13:35:34;;;;;;;0.68;0.30;;;23.70;41.70;;;;;;5036297;28;20033;-76
2022/05/13 13:38:03;;;;;;;0.40;0.30;;;23.40;41.70;;;;;;5037322;28;20053;-76
2022/05/13 13:40:36;;;;;;;1.10;0.38;;;23.50;42.50;;;;;;5069280;28;20040;-78
2022/05/13 13:43:14;;;;;;;2.03;0.65;;;23.30;42.30;;;;;;5038716;28;20104;-78
2022/05/13 13:45:44;;;;;;;0.30;0.30;;;23.30;42.00;;;;;;5056896;28;20032;-76